Time;durP1;ratioP1;P1;durP2;ratioP2;P2;SDS_P1;SDS_P2;PMS_P1;PMS_P2;Temp;Humidity;BMP_temperature;BMP_pressure;BME280_temperature;BME280_humidity;BME280_pressure;Samples;Min_cycle;Max_cycle;Signal;HPM_P1;HPM_P2
2022/02/10 00:18:04;;;;;;;5.97;5.37;;;6.10;35.30;;;;;;10420303;28;20220;-69
2022/02/10 00:23:22;;;;;;;6.33;5.57;;;6.10;35.50;;;;;;10411321;28;20719;-69
2022/02/10 00:39:24;;;;;;;8.67;5.93;;;6.10;36.30;;;;;;10418598;28;20227;-69
2022/02/10 00:44:28;;;;;;;12.23;8.17;;;6.10;35.30;;;;;;10416431;28;20574;-69
2022/02/10 00:49:32;;;;;;;13.87;8.10;;;6.10;35.40;;;;;;10413528;28;20226;-69
2022/02/10 00:54:38;;;;;;;17.63;10.57;;;6.10;35.60;;;;;;10415074;28;20230;-69
2022/02/10 01:00:00;;;;;;;10.87;7.07;;;6.10;35.50;;;;;;10417960;28;20225;-69
2022/02/10 01:10:31;;;;;;;5.67;5.17;;;6.00;35.70;;;;;;10423646;28;20268;-68
2022/02/10 01:31:42;;;;;;;6.20;5.47;;;5.80;35.60;;;;;;10390323;28;20241;-68
2022/02/10 01:36:46;;;;;;;6.63;5.57;;;5.80;35.80;;;;;;10382909;28;20225;-69
2022/02/10 01:42:28;;;;;;;5.40;4.90;;;5.80;35.90;;;;;;10384131;28;20232;-69
2022/02/10 01:58:14;;;;;;;5.17;4.67;;;5.60;36.00;;;;;;10430372;28;20225;-69
2022/02/10 02:03:23;;;;;;;5.17;4.70;;;5.60;35.90;;;;;;10426698;28;20230;-69
2022/02/10 02:08:31;;;;;;;6.37;5.13;;;5.50;35.90;;;;;;10429448;28;20244;-69
2022/02/10 02:13:35;;;;;;;5.00;4.50;;;5.50;36.10;;;;;;10422429;28;20240;-69
2022/02/10 02:18:38;;;;;;;5.30;4.30;;;5.50;36.10;;;;;;10424060;28;20232;-69
2022/02/10 02:23:43;;;;;;;4.97;4.57;;;5.50;36.20;;;;;;10426489;28;20218;-69
2022/02/10 02:28:51;;;;;;;4.93;4.20;;;5.40;36.20;;;;;;10425948;28;20221;-69
2022/02/10 02:34:24;;;;;;;4.80;4.40;;;5.50;36.10;;;;;;10423157;28;20604;-69
2022/02/10 02:39:56;;;;;;;3.87;3.50;;;5.40;35.80;;;;;;10405927;28;20229;-69
2022/02/10 03:06:30;;;;;;;4.37;3.97;;;5.20;35.60;;;;;;10422761;28;20594;-72
2022/02/10 03:11:36;;;;;;;4.57;4.17;;;5.10;35.50;;;;;;10418647;28;20237;-73
2022/02/10 03:22:17;;;;;;;4.47;4.07;;;4.90;35.90;;;;;;10425448;28;20236;-73
2022/02/10 04:00:26;;;;;;;6.90;4.33;;;4.80;36.30;;;;;;10386972;28;20244;-73
2022/02/10 04:06:01;;;;;;;3.97;3.57;;;4.80;36.10;;;;;;10420562;28;20256;-73
2022/02/10 04:16:30;;;;;;;3.73;3.37;;;4.70;36.10;;;;;;10422778;28;20236;-73
2022/02/10 04:21:44;;;;;;;4.20;3.77;;;4.70;36.20;;;;;;10422664;28;20236;-73
2022/02/10 04:26:56;;;;;;;3.87;3.47;;;4.60;35.80;;;;;;10421571;28;20233;-73
2022/02/10 04:59:23;;;;;;;3.83;3.53;;;4.30;36.20;;;;;;10406773;28;20685;-73
2022/02/10 05:04:52;;;;;;;4.00;3.60;;;4.30;36.20;;;;;;10423843;28;20222;-74
2022/02/10 05:15:57;;;;;;;5.57;3.80;;;4.30;36.20;;;;;;10391037;28;20229;-74
2022/02/10 05:21:11;;;;;;;4.70;4.30;;;4.30;36.20;;;;;;10421552;28;20224;-73
2022/02/10 05:36:59;;;;;;;8.43;7.23;;;4.20;36.10;;;;;;10424772;28;20771;-74
2022/02/10 05:42:34;;;;;;;6.83;6.13;;;4.30;36.20;;;;;;10421897;28;20229;-73
2022/02/10 05:47:57;;;;;;;7.97;6.50;;;4.10;36.00;;;;;;10421694;28;20228;-74
2022/02/10 05:53:26;;;;;;;5.80;5.20;;;4.10;36.10;;;;;;10411925;28;20718;-73
2022/02/10 05:58:37;;;;;;;6.20;4.80;;;4.20;36.10;;;;;;10419400;28;20217;-73
2022/02/10 06:52:08;;;;;;;8.00;7.00;;;4.00;36.00;;;;;;10380200;28;20240;-74
2022/02/10 06:58:05;;;;;;;8.33;6.43;;;3.90;35.90;;;;;;10381152;28;20225;-73
2022/02/10 07:03:15;;;;;;;8.03;6.77;;;4.10;36.30;;;;;;10379636;28;20565;-74
2022/02/10 07:08:33;;;;;;;7.10;5.87;;;3.90;36.10;;;;;;10403076;28;20861;-73
2022/02/10 07:56:47;;;;;;;5.20;4.70;;;4.00;37.50;;;;;;10417256;28;20228;-74
2022/02/10 08:50:05;;;;;;;5.27;4.53;;;6.80;39.50;;;;;;10385261;28;20232;-73
2022/02/10 09:00:58;;;;;;;3.50;3.20;;;7.50;39.30;;;;;;10412148;28;21489;-73
2022/02/10 09:06:10;;;;;;;5.70;4.03;;;7.80;39.10;;;;;;10413768;28;20213;-73
2022/02/10 10:00:24;;;;;;;4.20;3.20;;;11.30;35.10;;;;;;10547224;27;20670;-72
2022/02/10 10:05:32;;;;;;;4.17;3.03;;;11.60;35.30;;;;;;10550331;27;20219;-72
2022/02/10 10:10:50;;;;;;;3.70;3.33;;;11.80;35.30;;;;;;10551434;27;20231;-76
2022/02/10 10:15:59;;;;;;;4.90;3.70;;;12.00;34.70;;;;;;10558293;27;20558;-73
2022/02/10 10:26:55;;;;;;;6.23;3.50;;;12.40;34.30;;;;;;10559663;27;20251;-73
2022/02/10 10:53:32;;;;;;;4.30;3.17;;;13.40;33.80;;;;;;10527103;28;20586;-73
2022/02/10 10:58:43;;;;;;;3.17;2.87;;;13.50;33.60;;;;;;10511083;28;20230;-73
2022/02/10 11:36:35;;;;;;;5.00;3.30;;;14.50;31.70;;;;;;10517993;28;20216;-72
2022/02/10 11:41:49;;;;;;;4.53;3.00;;;14.60;31.90;;;;;;10518585;28;20238;-73
2022/02/10 13:48:01;;;;;;;4.37;3.00;;;14.60;31.00;;;;;;10515552;28;20224;-72
2022/02/10 14:13:51;;;;;;;4.30;3.70;;;14.40;31.20;;;;;;10535136;28;20775;-72
2022/02/10 14:19:01;;;;;;;4.97;3.63;;;14.40;31.00;;;;;;10531794;28;20675;-72
2022/02/10 14:29:27;;;;;;;3.80;3.40;;;14.50;31.50;;;;;;10499785;28;20227;-72
2022/02/10 14:34:30;;;;;;;5.00;3.97;;;14.50;31.30;;;;;;10530354;28;20247;-73
2022/02/10 14:39:54;;;;;;;3.90;3.23;;;14.50;31.60;;;;;;10530306;28;20730;-72
2022/02/10 15:55:41;;;;;;;4.97;4.20;;;14.50;30.80;;;;;;10508057;28;20258;-72
2022/02/10 16:11:57;;;;;;;4.07;3.50;;;14.20;30.70;;;;;;10473329;28;20235;-72
2022/02/10 16:17:03;;;;;;;5.10;3.57;;;14.10;31.20;;;;;;10527073;28;20235;-72
2022/02/10 16:22:21;;;;;;;4.97;3.33;;;14.00;31.20;;;;;;10534987;28;20226;-72
2022/02/10 16:27:27;;;;;;;5.03;3.70;;;13.90;31.10;;;;;;10532431;28;20231;-72
2022/02/10 16:32:31;;;;;;;9.07;3.97;;;13.80;31.10;;;;;;10522805;28;20681;-72
2022/02/10 16:37:40;;;;;;;5.57;4.43;;;13.70;31.00;;;;;;10526882;28;20220;-72
2022/02/10 16:42:48;;;;;;;6.07;4.60;;;13.60;30.90;;;;;;10530286;28;20222;-72
2022/02/10 16:47:57;;;;;;;4.97;4.00;;;13.50;30.80;;;;;;10531740;28;20211;-72
2022/02/10 16:53:11;;;;;;;5.47;4.00;;;13.40;30.70;;;;;;10529208;28;20227;-72
2022/02/10 16:58:27;;;;;;;4.80;3.90;;;13.30;30.90;;;;;;10526209;28;20214;-72
2022/02/10 17:14:50;;;;;;;4.70;4.03;;;13.10;31.30;;;;;;10527465;28;20881;-72
2022/02/10 17:20:23;;;;;;;5.70;4.93;;;13.10;31.40;;;;;;10524929;28;20989;-72
2022/02/10 17:25:33;;;;;;;7.83;6.20;;;13.10;31.30;;;;;;10522053;28;20219;-72
2022/02/10 17:36:06;;;;;;;7.50;5.93;;;12.70;31.70;;;;;;10523174;28;20246;-72
2022/02/10 17:46:41;;;;;;;7.73;6.93;;;12.40;32.00;;;;;;10534003;28;20340;-72
2022/02/10 17:51:56;;;;;;;10.00;8.97;;;12.30;32.10;;;;;;10527507;28;20235;-73
2022/02/10 17:57:01;;;;;;;11.13;9.77;;;12.20;32.10;;;;;;10534479;28;20241;-72
2022/02/10 18:02:05;;;;;;;12.97;10.90;;;12.20;32.30;;;;;;10535774;28;20226;-72
2022/02/10 18:07:10;;;;;;;19.80;14.93;;;12.20;32.20;;;;;;10533745;27;20757;-72
2022/02/10 18:17:41;;;;;;;8.10;7.30;;;12.20;32.20;;;;;;10539961;28;20593;-72
2022/02/10 18:28:20;;;;;;;6.87;6.17;;;12.10;32.20;;;;;;10527737;28;20222;-73
2022/02/10 18:33:39;;;;;;;6.77;5.40;;;12.10;32.50;;;;;;10533063;28;20218;-72
2022/02/10 19:05:53;;;;;;;14.37;11.90;;;12.00;32.60;;;;;;10532152;28;20312;-72
2022/02/10 19:10:59;;;;;;;10.70;8.67;;;12.00;32.50;;;;;;10530409;28;20215;-72
2022/02/10 19:16:04;;;;;;;17.80;10.83;;;12.00;32.60;;;;;;10532356;28;20228;-73
2022/02/10 19:21:26;;;;;;;9.30;6.80;;;11.90;32.80;;;;;;10518179;28;20235;-74
2022/02/10 19:26:29;;;;;;;9.87;8.73;;;11.90;32.60;;;;;;10530786;28;20616;-74
2022/02/10 19:31:36;;;;;;;8.97;7.90;;;11.80;32.60;;;;;;10531629;28;20233;-74
2022/02/10 19:36:40;;;;;;;7.70;6.90;;;11.80;32.80;;;;;;10534354;28;20241;-74
2022/02/10 19:41:47;;;;;;;10.03;7.53;;;11.80;32.80;;;;;;10528053;28;20228;-74
2022/02/10 19:46:52;;;;;;;7.53;6.03;;;11.80;32.80;;;;;;10634890;22;20228;-72
2022/02/10 19:51:55;;;;;;;11.60;7.17;;;11.70;33.00;;;;;;10521407;28;20227;-72
2022/02/10 19:56:58;;;;;;;8.30;7.40;;;11.70;32.80;;;;;;10522777;28;20707;-72
2022/02/10 20:02:05;;;;;;;9.23;7.07;;;11.50;32.90;;;;;;10517190;28;20224;-73
2022/02/10 20:07:11;;;;;;;9.90;8.47;;;11.50;33.20;;;;;;10522768;28;20220;-75
2022/02/10 20:12:14;;;;;;;9.50;7.83;;;11.40;33.30;;;;;;10523066;28;20220;-75
2022/02/10 20:17:19;;;;;;;8.87;6.80;;;11.40;33.30;;;;;;10522626;28;20222;-73
2022/02/10 20:22:22;;;;;;;8.57;6.97;;;11.40;33.50;;;;;;10522191;28;20227;-72
2022/02/10 20:27:25;;;;;;;7.20;6.50;;;11.20;33.30;;;;;;10522023;28;20234;-73
2022/02/10 20:32:30;;;;;;;9.13;6.53;;;11.30;33.50;;;;;;10523235;28;20682;-72
2022/02/10 20:37:33;;;;;;;7.33;6.63;;;11.30;33.70;;;;;;10522625;28;20232;-72
2022/02/10 20:42:36;;;;;;;8.80;6.93;;;11.30;33.50;;;;;;10517662;28;20237;-73
2022/02/10 20:47:41;;;;;;;9.90;7.07;;;11.30;33.60;;;;;;10519621;28;20223;-71
2022/02/10 20:52:46;;;;;;;7.97;6.67;;;11.20;33.80;;;;;;10517088;28;20700;-69
2022/02/10 20:57:49;;;;;;;10.10;7.13;;;11.20;33.70;;;;;;10521315;28;20999;-69
2022/02/10 21:02:55;;;;;;;7.70;6.00;;;11.20;33.80;;;;;;10520971;28;20661;-69
2022/02/10 21:08:08;;;;;;;8.77;7.07;;;11.10;33.90;;;;;;10520896;28;20231;-69
2022/02/10 21:13:13;;;;;;;12.27;10.47;;;11.00;33.90;;;;;;10519837;28;20609;-68
2022/02/10 21:18:19;;;;;;;12.87;10.77;;;11.00;33.90;;;;;;10519804;28;20227;-69
2022/02/10 21:23:26;;;;;;;13.40;10.40;;;11.00;34.10;;;;;;10520741;28;20273;-69
2022/02/10 21:28:34;;;;;;;11.67;10.47;;;11.00;34.10;;;;;;10518109;28;20745;-69
2022/02/10 21:33:55;;;;;;;10.43;9.27;;;10.90;34.10;;;;;;10521837;28;20211;-70
2022/02/10 21:39:02;;;;;;;10.77;8.57;;;10.90;34.40;;;;;;10515884;28;20220;-71
2022/02/10 21:55:13;;;;;;;10.33;8.07;;;10.60;34.40;;;;;;10503430;28;20223;-71
2022/02/10 22:11:14;;;;;;;10.07;8.43;;;10.50;35.20;;;;;;10508124;28;20215;-71
2022/02/10 22:16:29;;;;;;;9.00;7.67;;;10.40;34.30;;;;;;10511406;28;20235;-71
2022/02/10 22:21:37;;;;;;;10.03;8.10;;;10.40;34.30;;;;;;10518102;28;20615;-71
2022/02/10 22:26:41;;;;;;;8.20;6.77;;;10.30;34.50;;;;;;10518952;28;20231;-71
2022/02/10 22:31:55;;;;;;;6.80;6.20;;;10.20;34.40;;;;;;10528309;28;20224;-71
2022/02/10 22:37:02;;;;;;;7.40;6.40;;;10.20;34.60;;;;;;10525248;28;20273;-69
2022/02/10 22:42:07;;;;;;;7.47;6.67;;;10.20;34.80;;;;;;10527391;28;20243;-69
2022/02/10 22:47:10;;;;;;;11.07;8.80;;;10.30;34.70;;;;;;10522417;28;20239;-69
2022/02/10 22:52:15;;;;;;;15.40;10.40;;;10.30;34.60;;;;;;10523449;28;20235;-69
2022/02/10 22:57:18;;;;;;;11.47;7.27;;;10.30;34.40;;;;;;10525944;28;20231;-71
2022/02/10 23:02:21;;;;;;;6.47;5.77;;;10.30;34.10;;;;;;10524050;28;20726;-71
2022/02/10 23:07:26;;;;;;;8.77;7.63;;;10.30;34.10;;;;;;10517814;28;20231;-73
2022/02/10 23:12:30;;;;;;;13.50;10.70;;;10.30;34.10;;;;;;10524682;28;20233;-73
2022/02/10 23:17:36;;;;;;;12.73;10.77;;;10.30;33.90;;;;;;10521869;28;20232;-73
2022/02/10 23:22:42;;;;;;;12.30;9.40;;;10.30;33.80;;;;;;10522416;28;20334;-73
2022/02/10 23:27:45;;;;;;;10.33;7.67;;;10.20;33.90;;;;;;10524550;28;20577;-73
2022/02/10 23:32:48;;;;;;;8.13;7.20;;;10.10;33.80;;;;;;10525062;28;20607;-73
2022/02/10 23:37:53;;;;;;;6.67;5.43;;;10.10;33.90;;;;;;10523926;28;20231;-73
2022/02/10 23:42:56;;;;;;;7.00;6.27;;;10.00;33.70;;;;;;10525217;28;20235;-73
2022/02/10 23:48:00;;;;;;;8.00;6.17;;;9.90;34.70;;;;;;10524322;28;20226;-73
2022/02/10 23:53:05;;;;;;;9.90;7.83;;;9.90;34.70;;;;;;10520968;28;20597;-73
2022/02/10 23:58:20;;;;;;;8.67;7.10;;;9.80;34.70;;;;;;10523935;28;20779;-73
